createdAt,value
2022-08-18T00:02:30.017Z,25.17
2022-08-18T00:04:58.304Z,23.63
2022-08-18T00:07:31.804Z,25.73
2022-08-18T00:10:00.169Z,24.80
2022-08-18T00:12:34.653Z,27.00
2022-08-18T00:15:04.554Z,25.17
2022-08-18T00:17:33.341Z,26.67
2022-08-18T00:20:00.647Z,24.80
2022-08-18T00:22:28.033Z,25.00
2022-08-18T00:24:57.419Z,25.50
2022-08-18T00:27:28.687Z,26.13
2022-08-18T00:29:58.155Z,24.97
2022-08-18T00:32:33.722Z,24.37
2022-08-18T00:35:18.418Z,24.50
2022-08-18T00:37:45.838Z,25.17
2022-08-18T00:40:17.613Z,26.50
2022-08-18T00:42:51.948Z,26.27
2022-08-18T00:45:28.402Z,25.40
2022-08-18T00:47:55.949Z,26.03
2022-08-18T00:50:31.487Z,24.90
2022-08-18T00:53:05.088Z,25.57
2022-08-18T00:55:33.670Z,23.43
2022-08-18T00:58:09.300Z,23.43
2022-08-18T01:00:37.680Z,23.80
2022-08-18T01:03:12.252Z,23.33
2022-08-18T01:05:45.825Z,23.20
2022-08-18T01:08:17.141Z,24.40
2022-08-18T01:10:55.907Z,23.47
2022-08-18T01:13:27.434Z,22.93
2022-08-18T01:15:54.277Z,23.07
2022-08-18T01:18:40.496Z,23.63
2022-08-18T01:21:39.572Z,23.53
2022-08-18T01:24:10.183Z,22.37
2022-08-18T01:26:45.650Z,23.50
2022-08-18T01:29:18.797Z,23.33
2022-08-18T01:31:55.544Z,22.17
2022-08-18T01:34:25.742Z,24.27
2022-08-18T01:36:54.192Z,23.37
2022-08-18T01:41:23.543Z,23.73
2022-08-18T01:42:09.573Z,23.17
2022-08-18T01:44:36.670Z,22.47
2022-08-18T01:47:04.000Z,22.10
2022-08-18T01:49:30.801Z,23.90
2022-08-18T01:51:57.630Z,22.67
2022-08-18T01:54:24.737Z,22.87
2022-08-18T01:56:53.461Z,23.93
2022-08-18T01:59:20.372Z,22.83
2022-08-18T02:01:52.795Z,22.43
2022-08-18T02:04:36.450Z,21.27
2022-08-18T02:07:07.003Z,22.80
2022-08-18T02:09:34.768Z,21.20
2022-08-18T02:12:02.017Z,21.10
2022-08-18T02:14:31.464Z,22.13
2022-08-18T02:17:02.202Z,21.30
2022-08-18T02:19:42.338Z,21.70
2022-08-18T02:22:10.883Z,21.00
2022-08-18T02:24:38.698Z,21.00
2022-08-18T02:27:06.564Z,21.07
2022-08-18T02:29:33.389Z,21.23
2022-08-18T02:32:00.129Z,21.73
2022-08-18T02:34:26.987Z,21.70
2022-08-18T02:36:54.253Z,20.27
2022-08-18T02:39:21.508Z,20.47
2022-08-18T02:41:48.450Z,20.93
2022-08-18T02:44:15.402Z,20.77
2022-08-18T02:46:42.212Z,20.73
2022-08-18T02:49:09.240Z,20.40
2022-08-18T02:51:37.119Z,21.33
2022-08-18T02:54:09.237Z,21.17
2022-08-18T02:56:41.884Z,22.37
2022-08-18T02:59:15.730Z,21.70
2022-08-18T03:01:45.817Z,21.73
2022-08-18T03:04:15.906Z,20.57
2022-08-18T03:06:44.315Z,22.13
2022-08-18T03:09:13.978Z,23.10
2022-08-18T03:11:40.784Z,21.67
2022-08-18T03:14:11.178Z,22.20
2022-08-18T03:16:45.671Z,23.27
2022-08-18T03:19:28.769Z,23.60
2022-08-18T03:21:58.280Z,24.23
2022-08-18T03:24:28.584Z,24.90
2022-08-18T03:26:59.250Z,23.80
2022-08-18T03:29:31.143Z,24.50
2022-08-18T03:31:58.887Z,23.37
2022-08-18T03:34:25.781Z,23.80
2022-08-18T03:36:52.727Z,23.83
2022-08-18T03:39:20.380Z,24.33
2022-08-18T03:41:58.001Z,23.73
2022-08-18T03:44:32.339Z,24.73
2022-08-18T03:47:01.571Z,24.07
2022-08-18T03:49:28.535Z,22.07
2022-08-18T03:51:55.502Z,21.80
2022-08-18T03:54:22.323Z,23.13
2022-08-18T03:56:49.722Z,21.77
2022-08-18T03:59:19.821Z,22.87
2022-08-18T04:01:48.777Z,22.67
2022-08-18T04:04:19.794Z,23.77
2022-08-18T04:06:57.300Z,23.33
2022-08-18T04:09:26.203Z,22.77
2022-08-18T04:11:53.877Z,23.70
2022-08-18T04:14:26.529Z,22.83
2022-08-18T04:16:53.391Z,23.80
2022-08-18T04:19:25.169Z,22.47
2022-08-18T04:24:37.329Z,23.10
2022-08-18T04:27:07.934Z,22.80
2022-08-18T04:29:34.880Z,21.83
2022-08-18T04:32:04.871Z,21.93
2022-08-18T04:34:33.319Z,21.90
2022-08-18T04:37:02.289Z,20.23
2022-08-18T04:39:30.681Z,20.20
2022-08-18T04:41:59.245Z,22.60
2022-08-18T04:44:26.129Z,22.80
2022-08-18T04:46:54.356Z,21.40
2022-08-18T04:49:26.164Z,22.43
2022-08-18T04:52:27.063Z,21.77
2022-08-18T04:55:01.888Z,21.30
2022-08-18T04:57:29.158Z,23.20
2022-08-18T05:00:00.570Z,22.80
2022-08-18T05:02:27.405Z,23.00
2022-08-18T05:04:54.356Z,23.23
2022-08-18T05:07:25.654Z,21.80
2022-08-18T05:09:55.184Z,21.53
2022-08-18T05:12:22.849Z,21.17
2022-08-18T05:14:54.391Z,20.07
2022-08-18T05:17:21.328Z,21.23
2022-08-18T05:19:49.746Z,20.37
2022-08-18T05:22:24.270Z,19.97
2022-08-18T05:24:55.676Z,19.97
2022-08-18T05:27:22.541Z,19.73
2022-08-18T05:29:51.560Z,19.37
2022-08-18T05:32:46.520Z,18.43
2022-08-18T05:35:21.757Z,19.10
2022-08-18T05:38:26.914Z,20.27
2022-08-18T05:41:19.886Z,18.13
2022-08-18T05:43:51.737Z,19.07
2022-08-18T05:46:22.156Z,19.57
2022-08-18T05:48:49.814Z,18.97
2022-08-18T05:51:25.313Z,18.57
2022-08-18T05:54:10.721Z,18.50
2022-08-18T05:56:48.906Z,18.10
2022-08-18T05:59:28.747Z,17.83
2022-08-18T06:02:27.346Z,16.37
2022-08-18T06:05:01.549Z,18.43
2022-08-18T06:07:37.776Z,15.87
2022-08-18T06:10:07.302Z,15.60
2022-08-18T06:12:46.635Z,16.27
2022-08-18T06:15:34.788Z,16.87
2022-08-18T06:18:27.437Z,17.23
2022-08-18T06:21:27.929Z,17.27
2022-08-18T06:24:11.089Z,16.67
2022-08-18T06:26:56.448Z,17.47
2022-08-18T06:29:33.735Z,18.00
2022-08-18T06:32:45.257Z,17.23
2022-08-18T06:35:24.196Z,17.33
2022-08-18T06:38:24.820Z,18.17
2022-08-18T06:41:09.085Z,17.87
2022-08-18T06:43:57.855Z,18.60
2022-08-18T06:46:33.475Z,18.07
2022-08-18T06:49:05.669Z,17.97
2022-08-18T06:51:36.281Z,15.63
2022-08-18T06:54:26.885Z,16.23
2022-08-18T06:56:55.428Z,16.20
2022-08-18T06:59:29.673Z,15.73
2022-08-18T07:02:02.442Z,11.93
2022-08-18T07:05:15.271Z,11.83
2022-08-18T07:07:43.363Z,13.40
2022-08-18T07:10:16.218Z,13.63
2022-08-18T07:12:45.420Z,9.37
2022-08-18T07:15:12.977Z,9.70
2022-08-18T07:17:52.969Z,9.03
2022-08-18T07:20:25.837Z,9.80
2022-08-18T07:23:08.066Z,10.67
2022-08-18T07:25:42.437Z,11.13
2022-08-18T07:28:30.479Z,9.93
2022-08-18T07:31:17.471Z,11.43
2022-08-18T07:33:55.902Z,10.93
2022-08-18T07:36:26.037Z,9.80
2022-08-18T07:39:03.771Z,10.07
2022-08-18T07:41:57.389Z,9.03
2022-08-18T07:44:34.644Z,8.97
2022-08-18T07:47:23.642Z,8.70
2022-08-18T07:50:16.639Z,8.17
2022-08-18T07:52:58.248Z,8.70
2022-08-18T07:55:35.563Z,7.77
2022-08-18T07:58:21.431Z,7.63
2022-08-18T08:01:03.019Z,7.70
2022-08-18T08:03:59.633Z,7.37
2022-08-18T08:06:33.363Z,6.83
2022-08-18T08:09:00.223Z,7.67
2022-08-18T08:11:56.255Z,7.13
2022-08-18T08:14:42.452Z,7.57
2022-08-18T08:17:33.642Z,6.23
2022-08-18T08:20:40.509Z,6.10
2022-08-18T08:23:25.588Z,6.90
2022-08-18T08:26:15.349Z,6.67
2022-08-18T08:28:50.263Z,6.67
2022-08-18T08:31:38.109Z,6.10
2022-08-18T08:34:35.295Z,6.43
2022-08-18T08:37:04.944Z,6.77
2022-08-18T08:39:38.432Z,7.13
2022-08-18T08:42:50.189Z,7.03
2022-08-18T08:45:37.683Z,5.77
2022-08-18T08:48:20.632Z,5.70
2022-08-18T08:50:54.541Z,5.70
2022-08-18T08:53:27.631Z,5.93
2022-08-18T08:56:02.444Z,6.80
2022-08-18T08:58:59.066Z,7.07
2022-08-18T09:01:34.721Z,7.27
2022-08-18T09:04:06.293Z,8.20
2022-08-18T09:06:52.931Z,8.10
2022-08-18T09:09:57.757Z,7.73
2022-08-18T09:12:44.777Z,7.20
2022-08-18T09:15:42.677Z,7.77
2022-08-18T09:18:16.494Z,7.30
2022-08-18T09:21:05.456Z,8.27
2022-08-18T09:23:42.501Z,10.33
2022-08-18T09:26:31.375Z,10.83
2022-08-18T09:29:16.731Z,11.37
2022-08-18T09:31:46.204Z,11.40
2022-08-18T09:34:45.467Z,11.37
2022-08-18T09:37:24.527Z,11.70
2022-08-18T09:41:00.924Z,10.20
2022-08-18T09:43:31.474Z,11.13
2022-08-18T09:46:00.900Z,10.77
2022-08-18T09:48:36.647Z,11.63
2022-08-18T09:51:17.516Z,11.93
2022-08-18T09:53:52.309Z,12.67
2022-08-18T09:56:54.179Z,13.50
2022-08-18T09:59:35.021Z,12.17
2022-08-18T10:02:32.300Z,13.63
2022-08-18T10:05:17.270Z,14.57
2022-08-18T10:08:21.314Z,12.90
2022-08-18T10:14:12.222Z,9.93
2022-08-18T10:17:24.076Z,10.67
2022-08-18T10:20:09.670Z,9.63
2022-08-18T10:22:54.564Z,9.77
2022-08-18T10:25:46.429Z,9.93
2022-08-18T10:28:53.397Z,9.10
2022-08-18T10:31:24.158Z,8.97
2022-08-18T10:34:17.098Z,9.90
2022-08-18T10:36:46.253Z,9.27
2022-08-18T10:39:19.633Z,8.97
2022-08-18T10:42:14.864Z,8.40
2022-08-18T10:44:45.698Z,8.37
2022-08-18T10:47:33.997Z,5.03
2022-08-18T10:50:08.552Z,5.80
2022-08-18T10:53:24.206Z,5.10
2022-08-18T10:56:01.164Z,4.00
2022-08-18T10:58:40.683Z,3.80
2022-08-18T11:01:39.558Z,4.23
2022-08-18T11:04:13.831Z,4.70
2022-08-18T11:06:47.423Z,5.43
2022-08-18T11:09:26.542Z,5.73
2022-08-18T11:12:00.116Z,6.40
2022-08-18T11:14:53.198Z,5.47
2022-08-18T11:17:48.087Z,6.23
2022-08-18T11:20:18.281Z,5.80
2022-08-18T11:23:00.822Z,5.30
2022-08-18T11:25:36.149Z,6.73
2022-08-18T11:28:14.278Z,6.60
2022-08-18T11:30:47.863Z,6.37
2022-08-18T11:33:22.798Z,5.60
2022-08-18T11:35:58.043Z,5.70
2022-08-18T11:38:29.574Z,5.43
2022-08-18T11:41:17.339Z,5.40
2022-08-18T11:43:46.813Z,4.73
2022-08-18T11:46:27.683Z,4.80
2022-08-18T11:48:57.119Z,4.00
2022-08-18T11:51:31.436Z,3.53
2022-08-18T11:54:13.542Z,3.10
2022-08-18T11:56:40.561Z,3.73
2022-08-18T11:59:52.226Z,3.90
2022-08-18T12:02:22.469Z,3.57
2022-08-18T12:04:53.918Z,4.38
2022-08-18T12:07:33.945Z,4.07
2022-08-18T12:10:21.125Z,4.10
2022-08-18T12:12:55.707Z,3.80
2022-08-18T12:15:46.547Z,3.40
2022-08-18T12:18:26.012Z,3.77
2022-08-18T12:21:01.737Z,4.50
2022-08-18T12:23:38.363Z,4.13
2022-08-18T12:26:27.121Z,3.67
2022-08-18T12:31:48.128Z,3.80
2022-08-18T12:34:17.846Z,3.87
2022-08-18T12:36:52.503Z,3.70
2022-08-18T12:39:19.263Z,3.70
2022-08-18T12:41:47.386Z,4.73
2022-08-18T12:44:14.153Z,4.60
2022-08-18T12:49:29.587Z,4.10
2022-08-18T12:51:56.540Z,4.60
2022-08-18T12:54:25.489Z,3.83
2022-08-18T12:56:54.597Z,4.30
2022-08-18T12:59:24.500Z,3.60
2022-08-18T13:01:51.850Z,4.90
2022-08-18T13:04:26.809Z,4.33
2022-08-18T13:07:15.760Z,4.10
2022-08-18T13:09:53.207Z,4.33
2022-08-18T13:12:21.844Z,4.40
2022-08-18T13:14:50.945Z,3.73
2022-08-18T13:17:30.685Z,3.90
2022-08-18T13:20:00.735Z,4.37
2022-08-18T13:22:31.960Z,4.47
2022-08-18T13:24:59.315Z,3.13
2022-08-18T13:27:27.219Z,4.07
2022-08-18T13:29:59.840Z,3.67
2022-08-18T13:32:29.820Z,4.03
2022-08-18T13:35:09.064Z,3.87
2022-08-18T13:37:41.543Z,3.33
2022-08-18T13:40:12.521Z,3.97
2022-08-18T13:43:01.155Z,3.03
2022-08-18T13:45:29.171Z,3.80
2022-08-18T13:47:59.686Z,3.65
2022-08-18T13:50:29.879Z,3.58
2022-08-18T13:53:00.954Z,3.90
2022-08-18T13:55:29.157Z,3.70
2022-08-18T13:57:56.363Z,3.92
2022-08-18T14:00:30.317Z,3.33
2022-08-18T14:03:03.201Z,3.58
2022-08-18T14:05:36.137Z,3.17
2022-08-18T14:08:04.998Z,3.10
2022-08-18T14:10:32.656Z,2.70
2022-08-18T14:13:01.763Z,3.17
2022-08-18T14:15:52.978Z,4.10
2022-08-18T14:18:20.889Z,3.90
2022-08-18T14:21:06.522Z,3.57
2022-08-18T14:23:54.940Z,3.47
2022-08-18T14:26:40.294Z,3.33
2022-08-18T14:29:07.171Z,4.27
2022-08-18T14:31:41.170Z,3.60
2022-08-18T14:34:11.968Z,3.60
2022-08-18T14:36:38.771Z,3.30
2022-08-18T14:39:06.169Z,3.80
2022-08-18T14:41:36.054Z,3.73
2022-08-18T14:44:17.811Z,3.50
2022-08-18T14:46:52.478Z,3.57
2022-08-18T14:49:29.404Z,4.20
2022-08-18T14:51:58.755Z,3.43
2022-08-18T14:54:28.769Z,3.40
2022-08-18T14:56:58.387Z,3.80
2022-08-18T14:59:25.542Z,3.30
2022-08-18T15:01:53.512Z,3.50
2022-08-18T15:04:21.671Z,3.80
2022-08-18T15:06:56.616Z,4.00
2022-08-18T15:09:27.751Z,4.23
2022-08-18T15:11:56.274Z,4.67
2022-08-18T15:14:33.653Z,4.10
2022-08-18T15:17:03.094Z,4.60
2022-08-18T15:20:00.321Z,4.13
2022-08-18T15:22:44.109Z,4.40
2022-08-18T15:25:29.934Z,4.20
2022-08-18T15:27:57.998Z,4.37
2022-08-18T15:30:25.478Z,4.40
2022-08-18T15:32:54.173Z,5.00
2022-08-18T15:35:21.181Z,5.00
2022-08-18T15:37:51.434Z,5.00
2022-08-18T15:40:30.761Z,4.30
2022-08-18T15:43:06.912Z,4.20
2022-08-18T15:45:43.505Z,5.50
2022-08-18T15:48:24.352Z,5.07
2022-08-18T15:50:52.414Z,4.00
2022-08-18T15:53:22.645Z,4.60
2022-08-18T15:55:50.403Z,4.87
2022-08-18T15:58:22.392Z,4.87
2022-08-18T16:00:53.669Z,4.65
2022-08-18T16:03:21.521Z,4.20
2022-08-18T16:05:53.226Z,4.18
2022-08-18T16:08:25.131Z,4.43
2022-08-18T16:10:53.709Z,4.70
2022-08-18T16:13:21.586Z,4.93
2022-08-18T16:15:50.043Z,5.30
2022-08-18T16:18:18.595Z,4.57
2022-08-18T16:20:45.590Z,5.23
2022-08-18T16:23:13.225Z,4.97
2022-08-18T16:25:41.660Z,5.23
2022-08-18T16:28:09.312Z,5.72
2022-08-18T16:30:36.526Z,5.07
2022-08-18T16:33:05.948Z,5.05
2022-08-18T16:35:34.464Z,5.90
2022-08-18T16:38:08.757Z,5.80
2022-08-18T16:40:37.507Z,5.30
2022-08-18T16:43:05.030Z,4.93
2022-08-18T16:45:33.706Z,5.07
2022-08-18T16:48:00.909Z,5.25
2022-08-18T16:50:28.201Z,5.60
2022-08-18T16:52:55.180Z,4.90
2022-08-18T16:55:22.106Z,5.60
2022-08-18T16:58:07.800Z,6.37
2022-08-18T17:00:55.049Z,5.37
2022-08-18T17:03:42.283Z,4.83
2022-08-18T17:06:12.140Z,5.10
2022-08-18T17:08:39.858Z,5.80
2022-08-18T17:11:17.147Z,6.00
2022-08-18T17:13:44.906Z,5.38
2022-08-18T17:16:12.087Z,5.25
2022-08-18T17:18:39.555Z,4.93
2022-08-18T17:21:08.975Z,5.30
2022-08-18T17:23:38.735Z,5.33
2022-08-18T17:26:09.019Z,4.63
2022-08-18T17:28:50.631Z,5.53
2022-08-18T17:31:22.591Z,5.90
2022-08-18T17:33:49.539Z,5.83
2022-08-18T17:36:26.184Z,5.40
2022-08-18T17:39:00.006Z,4.53
2022-08-18T17:41:27.929Z,4.90
2022-08-18T17:44:00.825Z,4.65
2022-08-18T17:46:33.202Z,4.17
2022-08-18T17:49:10.165Z,5.57
2022-08-18T17:51:44.347Z,5.23
2022-08-18T17:54:50.459Z,4.63
2022-08-18T17:57:28.175Z,4.63
2022-08-18T18:00:15.003Z,4.80
2022-08-18T18:02:45.180Z,5.00
2022-08-18T18:05:15.561Z,8.07
2022-08-18T18:07:45.204Z,5.53
2022-08-18T18:10:22.267Z,5.33
2022-08-18T18:13:10.810Z,5.23
2022-08-18T18:15:40.576Z,4.43
2022-08-18T18:18:32.158Z,5.40
2022-08-18T18:21:06.028Z,5.23
2022-08-18T18:23:38.268Z,4.50
2022-08-18T18:26:29.542Z,4.73
2022-08-18T18:29:37.831Z,4.80
2022-08-18T18:32:38.842Z,5.27
2022-08-18T18:35:15.141Z,5.13
2022-08-18T18:38:48.935Z,4.80
2022-08-18T18:41:28.087Z,5.57
2022-08-18T18:44:07.119Z,4.60
2022-08-18T18:46:37.480Z,5.57
2022-08-18T18:49:10.248Z,5.43
2022-08-18T18:51:50.828Z,5.30
2022-08-18T18:54:40.887Z,5.20
2022-08-18T18:57:34.024Z,5.63
2022-08-18T19:00:10.649Z,5.33
2022-08-18T19:02:49.133Z,5.47
2022-08-18T19:05:37.566Z,5.10
2022-08-18T19:08:33.311Z,5.50
2022-08-18T19:11:17.438Z,5.63
2022-08-18T19:13:55.417Z,5.57
2022-08-18T19:16:45.135Z,5.43
2022-08-18T19:19:37.209Z,5.10
2022-08-18T19:22:21.195Z,4.77
2022-08-18T19:25:25.283Z,4.73
2022-08-18T19:27:54.180Z,4.90
2022-08-18T19:30:21.732Z,5.23
2022-08-18T19:32:52.717Z,4.77
2022-08-18T19:35:59.180Z,4.47
2022-08-18T19:38:30.181Z,5.23
2022-08-18T19:41:11.078Z,4.80
2022-08-18T19:43:43.217Z,4.67
2022-08-18T19:46:34.643Z,4.90
2022-08-18T19:49:16.645Z,4.60
2022-08-18T19:51:46.457Z,5.20
2022-08-18T19:54:56.589Z,5.50
2022-08-18T19:57:31.817Z,4.83
2022-08-18T20:00:06.849Z,5.40
2022-08-18T20:03:10.606Z,6.03
2022-08-18T20:05:40.200Z,5.83
2022-08-18T20:08:16.216Z,5.37
2022-08-18T20:11:01.368Z,4.70
2022-08-18T20:13:42.883Z,5.00
2022-08-18T20:16:25.127Z,4.63
2022-08-18T20:19:41.631Z,4.63
2022-08-18T20:22:24.826Z,5.23
2022-08-18T20:24:54.488Z,5.03
2022-08-18T20:27:37.795Z,5.43
2022-08-18T20:30:19.747Z,6.03
2022-08-18T20:33:29.623Z,5.70
2022-08-18T20:36:29.089Z,5.53
2022-08-18T20:38:59.339Z,6.30
2022-08-18T20:41:30.062Z,6.57
2022-08-18T20:44:15.187Z,6.67
2022-08-18T20:47:16.524Z,5.93
2022-08-18T20:50:08.156Z,6.10
2022-08-18T20:52:41.327Z,5.97
2022-08-18T20:55:26.583Z,6.37
2022-08-18T20:58:08.330Z,6.23
2022-08-18T21:00:40.635Z,6.63
2022-08-18T21:03:13.686Z,6.20
2022-08-18T21:05:43.736Z,5.93
2022-08-18T21:08:16.725Z,6.27
2022-08-18T21:11:09.145Z,6.87
2022-08-18T21:13:42.313Z,7.13
2022-08-18T21:16:38.210Z,8.20
2022-08-18T21:19:20.233Z,7.83
2022-08-18T21:21:52.874Z,7.47
2022-08-18T21:24:36.021Z,9.77
2022-08-18T21:27:27.351Z,7.90
2022-08-18T21:30:15.516Z,7.70
2022-08-18T21:32:45.313Z,7.47
2022-08-18T21:35:29.993Z,7.63
2022-08-18T21:37:56.804Z,7.10
2022-08-18T21:40:41.333Z,7.13
2022-08-18T21:43:10.195Z,7.30
2022-08-18T21:45:54.273Z,8.30
2022-08-18T21:48:23.197Z,8.10
2022-08-18T21:50:53.818Z,7.57
2022-08-18T21:53:28.174Z,7.90
2022-08-18T21:55:56.428Z,7.80
2022-08-18T21:58:34.220Z,8.07
2022-08-18T22:01:24.726Z,8.73
2022-08-18T22:03:59.745Z,8.17
2022-08-18T22:06:34.989Z,8.13
2022-08-18T22:09:29.134Z,7.70
2022-08-18T22:12:39.692Z,7.93
2022-08-18T22:15:26.709Z,8.33
2022-08-18T22:17:58.904Z,7.87
2022-08-18T22:20:48.559Z,8.13
2022-08-18T22:23:34.045Z,9.27
2022-08-18T22:26:26.343Z,9.73
2022-08-18T22:29:10.485Z,10.37
2022-08-18T22:31:39.731Z,11.30
2022-08-18T22:34:27.963Z,10.27
2022-08-18T22:37:03.654Z,10.67
2022-08-18T22:39:39.217Z,10.90
2022-08-18T22:42:06.901Z,10.67
2022-08-18T22:44:34.248Z,10.63
2022-08-18T22:47:03.236Z,10.93
2022-08-18T22:49:30.685Z,10.90
2022-08-18T22:51:57.835Z,11.23
2022-08-18T22:54:25.484Z,11.10
2022-08-18T22:56:53.974Z,10.57
2022-08-18T22:59:25.600Z,11.10
2022-08-18T23:01:54.898Z,10.70
2022-08-18T23:04:23.228Z,10.83
2022-08-18T23:06:53.674Z,11.30
2022-08-18T23:09:26.420Z,10.63
2022-08-18T23:11:56.838Z,12.10
2022-08-18T23:14:24.197Z,11.13
2022-08-18T23:16:51.295Z,11.20
2022-08-18T23:19:20.134Z,11.73
2022-08-18T23:21:48.357Z,11.67
2022-08-18T23:24:16.361Z,12.13
2022-08-18T23:26:43.289Z,12.57
2022-08-18T23:29:11.712Z,12.20
2022-08-18T23:31:41.059Z,12.80
2022-08-18T23:34:08.974Z,12.87
2022-08-18T23:36:41.268Z,11.97
2022-08-18T23:39:10.595Z,13.17
2022-08-18T23:41:38.384Z,12.17
2022-08-18T23:44:06.584Z,11.97
2022-08-18T23:46:33.928Z,11.27
2022-08-18T23:49:03.858Z,12.00
2022-08-18T23:51:37.514Z,12.00
2022-08-18T23:54:07.722Z,12.40
2022-08-18T23:56:36.715Z,11.17
2022-08-18T23:59:06.423Z,11.13
